Time;durP1;ratioP1;P1;durP2;ratioP2;P2;SDS_P1;SDS_P2;PMS_P1;PMS_P2;Temp;Humidity;BMP_temperature;BMP_pressure;BME280_temperature;BME280_humidity;BME280_pressure;Samples;Min_cycle;Max_cycle;Signal;HPM_P1;HPM_P2
2021/05/27 00:00:11;;;;;;;17.40;8.40;;;12.20;99.90;;;;;;5045741;28;20293;-53
2021/05/27 00:02:38;;;;;;;17.87;8.63;;;12.10;99.90;;;;;;5042156;28;20211;-50
2021/05/27 00:05:06;;;;;;;17.03;8.63;;;12.10;99.90;;;;;;5046037;28;20203;-51
2021/05/27 00:07:34;;;;;;;17.20;9.33;;;12.10;99.90;;;;;;5042870;28;20234;-52
2021/05/27 00:10:03;;;;;;;17.43;9.10;;;12.00;99.90;;;;;;5044084;28;20221;-52
2021/05/27 00:12:30;;;;;;;18.93;9.53;;;12.10;99.90;;;;;;5041267;28;20271;-52
2021/05/27 00:14:57;;;;;;;19.20;10.27;;;12.00;99.90;;;;;;5045773;28;20243;-51
2021/05/27 00:17:24;;;;;;;16.67;9.60;;;11.90;99.90;;;;;;5044752;28;21673;-51
2021/05/27 00:19:52;;;;;;;14.57;8.77;;;11.90;99.90;;;;;;5043167;28;20236;-51
2021/05/27 00:22:18;;;;;;;16.97;8.63;;;11.80;99.90;;;;;;5040508;28;20654;-52
2021/05/27 00:24:45;;;;;;;15.33;9.13;;;11.80;99.90;;;;;;5039361;28;20322;-51
2021/05/27 00:27:12;;;;;;;17.00;9.33;;;11.80;99.90;;;;;;5045470;28;20314;-51
2021/05/27 00:29:39;;;;;;;15.77;8.00;;;11.80;99.90;;;;;;5044531;28;20749;-51
2021/05/27 00:32:06;;;;;;;18.43;9.10;;;11.90;99.90;;;;;;5041703;28;20359;-51
2021/05/27 00:34:33;;;;;;;17.83;8.50;;;11.90;99.90;;;;;;5040169;28;20299;-51
2021/05/27 00:37:00;;;;;;;16.50;8.67;;;11.90;99.90;;;;;;5042308;28;20201;-51
2021/05/27 00:39:26;;;;;;;15.97;8.30;;;11.90;99.90;;;;;;5040308;28;20204;-52
2021/05/27 00:41:53;;;;;;;16.53;8.10;;;12.00;99.90;;;;;;5042601;28;20311;-51
2021/05/27 00:44:21;;;;;;;13.97;8.93;;;12.00;99.90;;;;;;5041946;28;20243;-51
2021/05/27 00:46:48;;;;;;;15.63;8.50;;;12.00;99.90;;;;;;5043619;28;20278;-52
2021/05/27 00:49:15;;;;;;;12.43;7.87;;;12.00;99.90;;;;;;5043450;28;20196;-52
2021/05/27 00:51:44;;;;;;;18.77;7.97;;;12.00;99.90;;;;;;5046027;28;20198;-51
2021/05/27 00:54:12;;;;;;;15.77;6.90;;;12.00;99.90;;;;;;5047650;28;20710;-52
2021/05/27 00:56:40;;;;;;;17.57;7.20;;;12.00;99.90;;;;;;5040427;28;20298;-50
2021/05/27 00:59:08;;;;;;;14.63;6.83;;;11.90;99.90;;;;;;5046745;28;20770;-51
2021/05/27 01:01:35;;;;;;;11.03;6.73;;;11.90;99.90;;;;;;5040575;28;20539;-51
2021/05/27 01:04:03;;;;;;;11.53;6.03;;;12.00;99.90;;;;;;5042463;28;20224;-52
2021/05/27 01:06:30;;;;;;;11.73;6.07;;;12.10;99.90;;;;;;5041952;28;20670;-51
2021/05/27 01:08:57;;;;;;;10.23;6.37;;;12.00;99.90;;;;;;5041388;28;20294;-51
2021/05/27 01:11:25;;;;;;;13.07;6.80;;;11.90;99.90;;;;;;5042710;28;20275;-51
2021/05/27 01:13:52;;;;;;;16.93;7.27;;;11.90;99.90;;;;;;5041400;28;20551;-51
2021/05/27 01:16:21;;;;;;;15.37;7.83;;;11.80;99.90;;;;;;5041300;28;20215;-50
2021/05/27 01:18:49;;;;;;;11.90;6.83;;;11.80;99.90;;;;;;5044278;28;20212;-52
2021/05/27 01:21:17;;;;;;;13.50;7.67;;;11.80;99.90;;;;;;5047781;28;20227;-51
2021/05/27 01:23:44;;;;;;;15.53;7.40;;;11.80;99.90;;;;;;5044729;28;20207;-51
2021/05/27 01:26:12;;;;;;;15.53;7.77;;;11.90;99.90;;;;;;5043699;28;20323;-52
2021/05/27 01:28:41;;;;;;;11.70;6.67;;;11.80;99.90;;;;;;5040202;28;20318;-51
2021/05/27 01:31:10;;;;;;;14.77;7.17;;;11.90;99.90;;;;;;5043163;28;20203;-52
2021/05/27 01:33:38;;;;;;;12.37;7.50;;;11.80;99.90;;;;;;5044164;28;20260;-51
2021/05/27 01:36:05;;;;;;;11.63;6.73;;;11.80;99.90;;;;;;5043640;28;20321;-52
2021/05/27 01:38:33;;;;;;;14.27;7.37;;;11.90;99.90;;;;;;5041945;28;20215;-52
2021/05/27 01:41:02;;;;;;;19.67;7.53;;;11.90;99.90;;;;;;5043101;28;20683;-52
2021/05/27 01:43:30;;;;;;;23.40;7.10;;;11.70;99.90;;;;;;5043767;28;20321;-51
2021/05/27 01:45:57;;;;;;;12.97;5.93;;;11.50;99.90;;;;;;5039883;28;20300;-52
2021/05/27 01:48:24;;;;;;;17.03;6.27;;;11.60;99.90;;;;;;5042160;28;20214;-52
2021/05/27 01:50:51;;;;;;;16.87;6.90;;;11.70;99.90;;;;;;5042521;28;20224;-52
2021/05/27 01:53:18;;;;;;;11.57;6.13;;;11.60;99.90;;;;;;5039400;28;20750;-52
2021/05/27 01:55:47;;;;;;;15.47;5.33;;;11.60;99.90;;;;;;5044810;28;20664;-52
2021/05/27 01:58:16;;;;;;;16.17;5.40;;;11.60;99.90;;;;;;5042727;28;20284;-51
2021/05/27 02:00:43;;;;;;;13.80;5.67;;;11.60;99.90;;;;;;5041964;28;20302;-51
2021/05/27 02:03:10;;;;;;;16.77;6.33;;;11.60;99.90;;;;;;5040725;28;20209;-52
2021/05/27 02:05:37;;;;;;;13.00;5.10;;;11.50;99.90;;;;;;5041565;28;21426;-52
2021/05/27 02:08:05;;;;;;;9.57;4.87;;;11.50;99.90;;;;;;5042006;28;20295;-51
2021/05/27 02:10:32;;;;;;;13.00;4.90;;;11.50;99.90;;;;;;5047500;28;21228;-51
2021/05/27 02:12:59;;;;;;;10.80;5.10;;;11.50;99.90;;;;;;5044870;28;20225;-51
2021/05/27 02:15:26;;;;;;;9.40;4.43;;;11.50;99.90;;;;;;5040734;28;20297;-51
2021/05/27 02:17:53;;;;;;;11.30;4.70;;;11.60;99.90;;;;;;5040563;28;20618;-51
2021/05/27 02:20:19;;;;;;;10.40;5.03;;;11.50;99.90;;;;;;5043586;28;20231;-51
2021/05/27 02:22:47;;;;;;;13.50;4.63;;;11.50;99.90;;;;;;5036711;28;20301;-52
2021/05/27 02:25:14;;;;;;;10.13;5.17;;;11.60;99.90;;;;;;5042061;28;20710;-51
2021/05/27 02:27:41;;;;;;;10.67;5.53;;;11.60;99.90;;;;;;5040873;28;20754;-51
2021/05/27 02:30:08;;;;;;;19.23;5.90;;;11.50;99.90;;;;;;5042934;28;20203;-51
2021/05/27 02:32:35;;;;;;;8.07;4.30;;;11.50;99.90;;;;;;5039285;28;20259;-51
2021/05/27 02:35:02;;;;;;;12.60;4.40;;;11.40;99.90;;;;;;5040317;28;20311;-51
2021/05/27 02:37:29;;;;;;;15.43;5.40;;;11.50;99.90;;;;;;5039977;28;20210;-51
2021/05/27 02:39:56;;;;;;;10.33;4.90;;;11.50;99.90;;;;;;5042670;28;20303;-51
2021/05/27 02:42:23;;;;;;;12.07;5.13;;;11.40;99.90;;;;;;5039784;28;20692;-51
2021/05/27 02:44:49;;;;;;;11.03;5.50;;;11.50;99.90;;;;;;5042955;28;20317;-52
2021/05/27 02:47:16;;;;;;;10.87;6.20;;;11.50;99.90;;;;;;5038676;28;20976;-51
2021/05/27 02:49:43;;;;;;;18.40;5.03;;;11.40;99.90;;;;;;5038015;28;20296;-51
2021/05/27 02:52:10;;;;;;;17.97;5.00;;;11.40;99.90;;;;;;5036643;28;22345;-51
2021/05/27 02:54:37;;;;;;;15.80;4.83;;;11.40;99.90;;;;;;5039457;28;20414;-52
2021/05/27 02:57:04;;;;;;;13.20;5.53;;;11.50;99.90;;;;;;5044231;28;20297;-51
2021/05/27 02:59:31;;;;;;;8.70;4.63;;;11.50;99.90;;;;;;5040129;28;20635;-52
2021/05/27 03:01:58;;;;;;;10.90;4.83;;;11.40;99.90;;;;;;5038109;28;20209;-52
2021/05/27 03:04:24;;;;;;;15.10;5.10;;;11.40;99.90;;;;;;5040996;28;20344;-51
2021/05/27 03:06:51;;;;;;;10.10;4.70;;;11.40;99.90;;;;;;5038928;28;20297;-51
2021/05/27 03:09:18;;;;;;;11.87;5.30;;;11.40;99.90;;;;;;5037834;28;20230;-52
2021/05/27 03:11:45;;;;;;;15.77;6.13;;;11.50;99.90;;;;;;5046918;28;20845;-52
2021/05/27 03:14:12;;;;;;;10.23;5.07;;;11.50;99.90;;;;;;5042008;28;20274;-52
2021/05/27 03:16:39;;;;;;;11.13;5.20;;;11.70;99.90;;;;;;5049550;28;20305;-53
2021/05/27 03:19:06;;;;;;;16.33;5.57;;;11.70;99.90;;;;;;5045163;28;20900;-51
2021/05/27 03:21:32;;;;;;;8.87;5.23;;;11.80;99.90;;;;;;5043939;28;20199;-52
2021/05/27 03:23:59;;;;;;;11.63;5.13;;;11.80;99.90;;;;;;5041134;28;20323;-51
2021/05/27 03:26:26;;;;;;;15.33;5.87;;;11.80;99.90;;;;;;5043078;28;20594;-52
2021/05/27 03:28:53;;;;;;;15.80;5.47;;;11.60;99.90;;;;;;5043342;28;20589;-53
2021/05/27 03:31:20;;;;;;;10.20;5.07;;;11.50;99.90;;;;;;5047749;28;20220;-52
2021/05/27 03:33:47;;;;;;;15.00;5.97;;;11.30;99.90;;;;;;5039334;28;20714;-51
2021/05/27 03:36:14;;;;;;;13.53;6.10;;;11.30;99.90;;;;;;5043872;28;20310;-52
2021/05/27 03:38:40;;;;;;;11.63;5.27;;;11.40;99.90;;;;;;5043954;28;20283;-52
2021/05/27 03:41:07;;;;;;;10.67;4.90;;;11.30;99.90;;;;;;5043856;28;20198;-52
2021/05/27 03:43:34;;;;;;;9.17;5.20;;;11.20;99.90;;;;;;5042899;28;20291;-52
2021/05/27 03:46:02;;;;;;;12.10;5.60;;;11.30;99.90;;;;;;5043116;28;20237;-52
2021/05/27 03:48:28;;;;;;;10.53;4.90;;;11.20;99.90;;;;;;5044167;28;20293;-51
2021/05/27 03:50:55;;;;;;;9.10;5.30;;;11.20;99.90;;;;;;5045559;28;20284;-51
2021/05/27 03:53:22;;;;;;;11.47;5.67;;;11.20;99.90;;;;;;5038989;28;20218;-52
2021/05/27 03:55:49;;;;;;;10.07;4.77;;;11.30;99.90;;;;;;5042149;28;20423;-52
2021/05/27 04:01:02;;;;;;;15.43;5.13;;;11.20;99.90;;;;;;5048852;28;20335;-51
2021/05/27 04:07:04;;;;;;;8.90;3.93;;;11.10;99.90;;;;;;5047061;28;20297;-50
2021/05/27 04:09:01;;;;;;;10.57;4.80;;;11.10;99.90;;;;;;5047912;28;20287;-51
2021/05/27 04:11:27;;;;;;;12.70;4.80;;;11.00;99.90;;;;;;5047269;28;20308;-52
2021/05/27 04:13:54;;;;;;;10.67;5.50;;;11.10;99.90;;;;;;5045660;28;20692;-51
2021/05/27 04:16:21;;;;;;;13.23;4.70;;;11.00;99.90;;;;;;5050038;28;20260;-52
2021/05/27 04:18:48;;;;;;;9.80;5.03;;;11.10;99.90;;;;;;5047819;28;20702;-53
2021/05/27 04:21:17;;;;;;;12.93;5.67;;;11.20;99.90;;;;;;5051211;28;20679;-52
2021/05/27 04:23:44;;;;;;;10.00;5.40;;;11.10;99.90;;;;;;5045506;28;20611;-51
2021/05/27 04:26:16;;;;;;;10.20;5.70;;;11.20;99.90;;;;;;5047499;28;20366;-52
2021/05/27 04:28:44;;;;;;;7.93;5.80;;;11.10;99.90;;;;;;5046867;28;20299;-51
2021/05/27 04:31:18;;;;;;;12.20;5.67;;;11.00;99.90;;;;;;5049034;28;20238;-52
2021/05/27 04:33:47;;;;;;;14.43;5.70;;;10.90;99.90;;;;;;5044353;28;20234;-52
2021/05/27 04:36:15;;;;;;;13.90;6.77;;;11.10;99.90;;;;;;5048135;28;20388;-51
2021/05/27 04:38:43;;;;;;;13.70;6.27;;;11.00;99.90;;;;;;5043801;28;20282;-52
2021/05/27 04:41:10;;;;;;;21.53;5.90;;;11.10;99.90;;;;;;5047220;28;20202;-51
2021/05/27 04:43:40;;;;;;;13.97;5.93;;;10.90;99.90;;;;;;5046269;28;20318;-51
2021/05/27 04:46:10;;;;;;;10.90;5.43;;;10.90;99.90;;;;;;5048048;28;20318;-52
2021/05/27 04:48:37;;;;;;;12.13;5.40;;;10.90;99.90;;;;;;5045807;28;20220;-51
2021/05/27 04:51:05;;;;;;;9.67;5.47;;;10.80;99.90;;;;;;5048435;28;20286;-51
2021/05/27 04:53:32;;;;;;;13.43;5.30;;;11.00;99.90;;;;;;5045882;28;20234;-51
2021/05/27 04:55:59;;;;;;;13.33;5.37;;;11.10;99.90;;;;;;5047143;28;20810;-52
2021/05/27 04:58:26;;;;;;;13.80;6.50;;;11.10;99.90;;;;;;5047345;28;20545;-52
2021/05/27 05:00:53;;;;;;;12.00;5.30;;;11.00;99.90;;;;;;5050408;28;20690;-52
2021/05/27 05:03:20;;;;;;;9.03;4.57;;;10.90;99.90;;;;;;5046355;28;20238;-53
2021/05/27 05:05:47;;;;;;;15.57;5.80;;;11.20;99.90;;;;;;5049891;28;20709;-53
2021/05/27 05:08:14;;;;;;;17.50;5.40;;;11.10;99.90;;;;;;5046528;28;20300;-52
2021/05/27 05:10:45;;;;;;;12.17;5.47;;;11.20;99.90;;;;;;5048924;28;20203;-53
2021/05/27 05:13:12;;;;;;;11.87;5.77;;;11.10;99.90;;;;;;5044972;28;22206;-52
2021/05/27 05:15:41;;;;;;;12.73;6.13;;;11.00;99.90;;;;;;5047267;28;20277;-52
2021/05/27 05:18:13;;;;;;;14.83;5.73;;;11.20;99.90;;;;;;5047509;28;20314;-52
2021/05/27 05:20:43;;;;;;;20.70;6.73;;;11.10;99.90;;;;;;5048308;28;20223;-52
2021/05/27 05:23:11;;;;;;;18.00;6.50;;;11.00;99.90;;;;;;5041831;28;20295;-52
2021/05/27 05:25:40;;;;;;;14.57;6.20;;;11.20;99.90;;;;;;5046184;28;20413;-53
2021/05/27 05:28:08;;;;;;;20.40;6.07;;;11.20;99.90;;;;;;5046331;28;20327;-52
2021/05/27 05:30:35;;;;;;;20.20;6.73;;;11.10;99.90;;;;;;5047655;28;20256;-52
2021/05/27 05:33:01;;;;;;;14.57;6.40;;;11.20;99.90;;;;;;5039682;28;20290;-52
2021/05/27 05:35:30;;;;;;;10.50;5.13;;;11.30;99.90;;;;;;5041302;28;20206;-53
2021/05/27 05:37:57;;;;;;;10.57;5.37;;;11.00;99.90;;;;;;5039991;28;20659;-52
2021/05/27 05:40:26;;;;;;;13.67;5.20;;;11.00;99.90;;;;;;5046207;28;20565;-52
2021/05/27 05:42:55;;;;;;;13.30;5.60;;;10.90;99.90;;;;;;5043131;28;20254;-53
2021/05/27 05:45:22;;;;;;;12.10;5.37;;;11.10;99.90;;;;;;5047128;28;20313;-52
2021/05/27 05:47:54;;;;;;;12.37;5.23;;;11.10;99.90;;;;;;5038948;28;20607;-52
2021/05/27 05:53:09;;;;;;;11.73;4.63;;;11.10;99.90;;;;;;5039916;28;20340;-51
2021/05/27 05:55:37;;;;;;;17.63;4.57;;;11.00;99.90;;;;;;5043452;28;20314;-53
2021/05/27 05:58:04;;;;;;;7.03;4.33;;;11.10;99.90;;;;;;5044624;28;20333;-52
2021/05/27 06:00:32;;;;;;;13.67;4.60;;;11.20;99.90;;;;;;5038612;28;20338;-52
2021/05/27 06:02:59;;;;;;;13.07;4.80;;;11.10;99.90;;;;;;5043431;28;20671;-52
2021/05/27 06:05:26;;;;;;;10.20;4.80;;;11.20;99.90;;;;;;5041156;28;20215;-52
2021/05/27 06:07:55;;;;;;;18.47;5.30;;;11.10;99.90;;;;;;5037112;28;20654;-52
2021/05/27 06:10:23;;;;;;;11.93;4.40;;;11.20;99.90;;;;;;5038858;28;20814;-51
2021/05/27 06:12:55;;;;;;;15.40;4.93;;;11.30;99.90;;;;;;5040088;28;20564;-50
2021/05/27 06:15:26;;;;;;;13.40;5.13;;;11.40;99.90;;;;;;5039929;28;20203;-53
2021/05/27 06:17:56;;;;;;;18.20;5.60;;;11.50;99.90;;;;;;5041272;28;20213;-52
2021/05/27 06:20:25;;;;;;;12.43;5.80;;;11.50;99.90;;;;;;5042218;28;20249;-51
2021/05/27 06:22:53;;;;;;;15.57;6.17;;;11.30;99.90;;;;;;5038679;28;20228;-52
2021/05/27 06:25:22;;;;;;;12.20;6.90;;;11.40;99.90;;;;;;5039764;28;20421;-51
2021/05/27 06:27:51;;;;;;;13.47;5.83;;;11.40;99.90;;;;;;5040879;28;20271;-51
2021/05/27 06:30:19;;;;;;;15.97;6.37;;;11.50;99.90;;;;;;5038937;28;20277;-52
2021/05/27 06:32:46;;;;;;;10.63;5.33;;;11.30;99.90;;;;;;5043196;28;20241;-52
2021/05/27 06:35:14;;;;;;;13.20;6.17;;;11.30;99.90;;;;;;5038182;28;20202;-52
2021/05/27 06:37:42;;;;;;;14.83;5.83;;;11.30;99.90;;;;;;5041281;28;20231;-52
2021/05/27 06:40:18;;;;;;;16.33;5.20;;;11.30;99.90;;;;;;5042059;28;20227;-52
2021/05/27 06:42:45;;;;;;;16.43;5.37;;;10.90;99.90;;;;;;5037393;28;20330;-52
2021/05/27 06:45:13;;;;;;;8.67;4.07;;;11.10;99.90;;;;;;5042375;28;20339;-53
2021/05/27 06:47:41;;;;;;;10.40;4.93;;;11.10;99.90;;;;;;5045294;28;20330;-52
2021/05/27 06:50:13;;;;;;;15.00;4.60;;;11.10;99.90;;;;;;5046865;28;20274;-52
2021/05/27 06:52:40;;;;;;;13.40;5.60;;;11.00;99.90;;;;;;5045523;28;20249;-52
2021/05/27 06:55:08;;;;;;;12.80;4.80;;;10.90;99.90;;;;;;5047945;28;21120;-52
2021/05/27 06:57:35;;;;;;;11.57;4.67;;;11.00;99.90;;;;;;5044482;28;20255;-52
2021/05/27 07:00:05;;;;;;;9.10;4.37;;;11.00;99.90;;;;;;5045361;28;20205;-51
2021/05/27 07:02:32;;;;;;;12.00;4.93;;;11.10;99.90;;;;;;5043599;28;20211;-52
2021/05/27 07:04:59;;;;;;;14.87;4.23;;;11.10;99.90;;;;;;5048356;28;20297;-53
2021/05/27 07:07:26;;;;;;;9.67;4.43;;;11.10;99.90;;;;;;5043936;28;20289;-52
2021/05/27 07:09:58;;;;;;;10.03;3.93;;;11.20;99.90;;;;;;5042757;28;20725;-52
2021/05/27 07:12:25;;;;;;;7.67;3.93;;;11.30;99.90;;;;;;5042542;28;20629;-51
2021/05/27 07:14:51;;;;;;;13.50;4.60;;;11.40;99.90;;;;;;5042488;28;20294;-52
2021/05/27 07:17:18;;;;;;;7.40;3.93;;;11.30;99.90;;;;;;5040380;28;20280;-52
2021/05/27 07:19:45;;;;;;;14.30;4.60;;;11.30;99.90;;;;;;5044772;28;20666;-51
2021/05/27 07:22:12;;;;;;;11.33;4.23;;;11.40;99.90;;;;;;5042384;28;20203;-52
2021/05/27 07:24:39;;;;;;;14.30;4.27;;;11.30;99.90;;;;;;5047591;28;20349;-54
2021/05/27 07:27:05;;;;;;;14.87;4.70;;;11.30;99.90;;;;;;5049205;28;20252;-53
2021/05/27 07:29:33;;;;;;;8.70;3.80;;;11.20;99.90;;;;;;5043613;28;20732;-53
2021/05/27 07:32:01;;;;;;;9.87;3.77;;;11.20;99.90;;;;;;5046765;28;20224;-53
2021/05/27 07:34:28;;;;;;;15.03;4.00;;;11.20;99.90;;;;;;5042874;28;20279;-53
2021/05/27 07:36:55;;;;;;;13.53;4.37;;;11.20;99.90;;;;;;5043480;28;20564;-52
2021/05/27 07:39:22;;;;;;;8.97;3.40;;;11.30;99.90;;;;;;5038938;28;20330;-52
2021/05/27 07:41:50;;;;;;;8.87;3.80;;;11.20;99.90;;;;;;5046789;28;20203;-52
2021/05/27 07:44:16;;;;;;;13.13;3.93;;;11.20;99.90;;;;;;5042293;28;20308;-52
2021/05/27 07:46:44;;;;;;;7.57;3.40;;;11.40;99.90;;;;;;5040028;28;20316;-52
2021/05/27 07:49:10;;;;;;;9.73;3.73;;;11.40;99.90;;;;;;5042616;28;20200;-53
2021/05/27 07:51:37;;;;;;;10.13;3.90;;;11.40;99.90;;;;;;5044605;28;20231;-53
2021/05/27 07:54:04;;;;;;;9.27;3.73;;;11.50;99.90;;;;;;5045916;28;20222;-53
2021/05/27 07:56:31;;;;;;;8.70;3.43;;;11.50;99.90;;;;;;5046548;28;20540;-52
2021/05/27 07:58:58;;;;;;;9.67;3.93;;;11.50;99.90;;;;;;5038304;28;20243;-52
2021/05/27 08:01:25;;;;;;;11.40;3.03;;;11.50;99.90;;;;;;5040674;28;20309;-52
2021/05/27 08:03:55;;;;;;;6.80;3.03;;;11.50;99.90;;;;;;5045152;28;20200;-52
2021/05/27 08:06:22;;;;;;;13.53;3.23;;;11.50;99.90;;;;;;5047098;28;20306;-52
2021/05/27 08:08:49;;;;;;;13.17;3.30;;;11.30;99.90;;;;;;5048153;28;20654;-51
2021/05/27 08:11:16;;;;;;;9.67;3.87;;;11.40;99.90;;;;;;5047256;28;20296;-52
2021/05/27 08:13:43;;;;;;;7.33;3.33;;;11.40;99.90;;;;;;5047635;28;20341;-51
2021/05/27 08:16:10;;;;;;;13.10;3.93;;;11.20;99.90;;;;;;5044586;28;20262;-52
2021/05/27 08:18:37;;;;;;;9.80;3.13;;;11.20;99.90;;;;;;5046230;28;20207;-53
2021/05/27 08:21:04;;;;;;;9.07;3.97;;;11.30;99.90;;;;;;5051539;28;20208;-52
2021/05/27 08:23:31;;;;;;;11.63;3.57;;;11.40;99.90;;;;;;5047641;28;20788;-51
2021/05/27 08:25:58;;;;;;;10.63;3.47;;;11.30;99.90;;;;;;5049979;28;20310;-52
2021/05/27 08:28:25;;;;;;;7.60;3.90;;;11.20;99.90;;;;;;5047066;28;20295;-51
2021/05/27 08:30:53;;;;;;;12.73;3.30;;;11.40;99.90;;;;;;5046314;28;20234;-51
2021/05/27 08:33:21;;;;;;;10.33;3.00;;;11.30;99.90;;;;;;5047410;28;20285;-51
2021/05/27 08:35:52;;;;;;;5.90;2.73;;;11.40;99.90;;;;;;5050568;28;20231;-51
2021/05/27 08:38:19;;;;;;;6.27;3.40;;;11.40;99.90;;;;;;5048897;28;20284;-51
2021/05/27 08:40:46;;;;;;;8.60;3.17;;;11.30;99.90;;;;;;5050910;28;20774;-51
2021/05/27 08:43:14;;;;;;;8.03;3.50;;;11.40;99.90;;;;;;5048162;28;20298;-53
2021/05/27 08:45:43;;;;;;;11.47;3.80;;;11.50;99.90;;;;;;5046390;28;20324;-51
2021/05/27 08:48:11;;;;;;;8.00;2.87;;;11.60;99.90;;;;;;5048014;28;20286;-53
2021/05/27 08:50:46;;;;;;;8.93;3.50;;;11.50;99.90;;;;;;5046337;28;20279;-51
2021/05/27 08:53:15;;;;;;;9.13;3.67;;;11.70;99.90;;;;;;5047583;28;20223;-51
2021/05/27 08:55:43;;;;;;;7.57;3.53;;;11.60;99.90;;;;;;5048927;28;20283;-50
2021/05/27 08:58:10;;;;;;;6.70;3.07;;;11.60;99.90;;;;;;5049057;28;20253;-51
2021/05/27 09:00:37;;;;;;;7.33;3.23;;;11.60;99.90;;;;;;5049355;28;20828;-51
2021/05/27 09:03:06;;;;;;;6.33;3.47;;;11.60;99.90;;;;;;5048804;28;20250;-51
2021/05/27 09:05:36;;;;;;;6.17;3.20;;;11.50;99.90;;;;;;5043773;28;20777;-51
2021/05/27 09:08:08;;;;;;;8.90;3.20;;;11.50;99.90;;;;;;5049096;28;20198;-51
2021/05/27 09:10:42;;;;;;;9.13;3.43;;;11.70;99.90;;;;;;5046837;28;20283;-52
2021/05/27 09:13:18;;;;;;;8.13;2.87;;;11.60;99.90;;;;;;5043671;28;20884;-51
2021/05/27 09:15:46;;;;;;;12.20;3.20;;;11.80;99.90;;;;;;5049876;28;20387;-51
2021/05/27 09:18:13;;;;;;;8.17;3.20;;;11.80;99.90;;;;;;5046796;28;20675;-51
2021/05/27 09:20:40;;;;;;;14.67;3.27;;;11.50;99.90;;;;;;5045690;28;20227;-52
2021/05/27 09:23:21;;;;;;;9.43;2.90;;;11.70;99.90;;;;;;5045305;28;20235;-52
2021/05/27 09:25:53;;;;;;;10.00;3.20;;;11.70;99.90;;;;;;5045915;28;20249;-52
2021/05/27 09:28:22;;;;;;;8.13;3.30;;;11.80;99.90;;;;;;5044852;28;20256;-52
2021/05/27 09:30:56;;;;;;;10.87;3.47;;;11.80;99.90;;;;;;5047881;28;20567;-52
2021/05/27 09:33:39;;;;;;;10.00;3.40;;;12.00;99.90;;;;;;5045854;28;20286;-52
2021/05/27 09:36:08;;;;;;;7.33;2.40;;;11.90;99.90;;;;;;5048097;28;20333;-52
2021/05/27 09:38:40;;;;;;;7.80;3.23;;;11.80;99.90;;;;;;5048106;28;20211;-51
2021/05/27 09:41:58;;;;;;;11.73;3.57;;;11.80;99.90;;;;;;5047300;28;20310;-51
2021/05/27 09:44:26;;;;;;;6.30;3.10;;;11.90;99.90;;;;;;4990677;28;20259;-51
2021/05/27 09:46:55;;;;;;;7.83;2.90;;;12.00;99.90;;;;;;4989489;28;20400;-52
2021/05/27 09:49:23;;;;;;;8.60;3.37;;;11.80;99.90;;;;;;4993311;28;20212;-51
2021/05/27 09:51:52;;;;;;;6.97;3.50;;;11.80;99.90;;;;;;4990656;28;20196;-54
2021/05/27 09:54:19;;;;;;;9.27;3.30;;;12.10;99.90;;;;;;4988756;28;20208;-51
2021/05/27 09:56:48;;;;;;;6.90;3.27;;;12.10;99.90;;;;;;4976560;28;20233;-50
2021/05/27 09:59:16;;;;;;;7.47;3.20;;;12.00;99.90;;;;;;4991301;28;20214;-51
2021/05/27 10:02:12;;;;;;;5.80;3.87;;;11.90;99.90;;;;;;4977294;28;20704;-51
2021/05/27 10:04:58;;;;;;;7.57;3.00;;;11.90;99.90;;;;;;4992690;28;20346;-51
2021/05/27 10:07:36;;;;;;;9.57;2.90;;;11.90;99.90;;;;;;4991290;28;20333;-51
2021/05/27 10:10:22;;;;;;;10.07;4.27;;;11.80;99.90;;;;;;4992262;28;20665;-51
2021/05/27 10:12:54;;;;;;;5.67;3.80;;;11.90;99.90;;;;;;4992491;28;20210;-51
2021/05/27 10:15:24;;;;;;;8.87;2.90;;;11.90;99.90;;;;;;4990776;28;21130;-51
2021/05/27 10:17:53;;;;;;;7.50;3.50;;;11.80;99.90;;;;;;4997843;28;20397;-51
2021/05/27 10:20:24;;;;;;;6.53;3.20;;;11.80;99.90;;;;;;5051621;28;20231;-51
2021/05/27 10:22:55;;;;;;;5.67;2.73;;;11.80;99.90;;;;;;5045373;28;20219;-50
2021/05/27 10:25:23;;;;;;;7.47;3.40;;;11.70;99.90;;;;;;5050870;28;20223;-50
2021/05/27 10:27:52;;;;;;;6.97;3.43;;;11.60;99.90;;;;;;5048238;28;20317;-51
2021/05/27 10:30:20;;;;;;;10.10;3.37;;;11.70;99.90;;;;;;5044113;28;20531;-50
2021/05/27 10:32:53;;;;;;;6.13;3.20;;;11.70;99.90;;;;;;5047188;28;20638;-50
2021/05/27 10:35:20;;;;;;;9.67;3.50;;;11.70;99.90;;;;;;5054935;28;20263;-51
2021/05/27 10:37:50;;;;;;;8.17;3.60;;;11.80;99.90;;;;;;5046403;28;20724;-51
2021/05/27 10:40:22;;;;;;;11.13;4.07;;;11.80;99.90;;;;;;5045271;28;20248;-51
2021/05/27 10:42:55;;;;;;;10.47;4.03;;;11.80;99.90;;;;;;5043830;28;20305;-51
2021/05/27 10:45:26;;;;;;;13.70;3.70;;;12.00;99.90;;;;;;5048475;28;20208;-51
2021/05/27 10:48:11;;;;;;;8.43;3.30;;;12.00;99.90;;;;;;5044806;28;20285;-51
2021/05/27 10:51:07;;;;;;;8.90;3.50;;;11.90;99.90;;;;;;5050097;28;20341;-51
2021/05/27 10:53:37;;;;;;;12.37;4.13;;;12.00;99.90;;;;;;5047106;28;20243;-51
2021/05/27 10:56:10;;;;;;;12.43;4.63;;;12.20;99.90;;;;;;5047725;28;20203;-51
2021/05/27 10:58:49;;;;;;;10.60;3.70;;;12.30;99.90;;;;;;5050922;28;20235;-51
2021/05/27 11:01:18;;;;;;;12.10;3.57;;;12.30;99.90;;;;;;5052883;28;20298;-51
2021/05/27 11:03:55;;;;;;;10.13;3.80;;;12.40;99.90;;;;;;5046635;28;20226;-52
2021/05/27 11:06:30;;;;;;;10.17;3.03;;;12.30;99.90;;;;;;5042605;28;20272;-51
2021/05/27 11:09:24;;;;;;;32.07;7.00;;;12.20;99.90;;;;;;5044184;28;20673;-51
2021/05/27 11:11:58;;;;;;;14.00;4.27;;;12.10;99.90;;;;;;5047991;28;20300;-51
2021/05/27 11:14:34;;;;;;;10.57;3.70;;;12.10;99.90;;;;;;5049195;28;20250;-51
2021/05/27 11:17:07;;;;;;;15.90;3.27;;;12.20;99.90;;;;;;5049693;28;20224;-51
2021/05/27 11:27:37;;;;;;;13.70;4.30;;;12.30;99.90;;;;;;5043319;28;20254;-52
2021/05/27 11:30:41;;;;;;;14.57;4.07;;;12.40;99.90;;;;;;5048054;28;20192;-51
2021/05/27 11:33:11;;;;;;;10.90;3.70;;;12.40;99.90;;;;;;5054807;28;20572;-52
2021/05/27 11:35:38;;;;;;;9.57;4.00;;;12.40;99.90;;;;;;5055710;28;20274;-51
2021/05/27 11:38:07;;;;;;;11.60;4.17;;;12.30;99.90;;;;;;5054234;28;20244;-51
2021/05/27 11:40:37;;;;;;;11.97;4.30;;;12.30;99.90;;;;;;5050998;28;20233;-51
2021/05/27 11:43:04;;;;;;;14.50;4.43;;;12.30;99.90;;;;;;5051368;28;20232;-51
2021/05/27 11:45:46;;;;;;;11.73;4.60;;;12.30;99.90;;;;;;5053184;28;20239;-51
2021/05/27 11:51:13;;;;;;;9.53;4.40;;;12.40;99.90;;;;;;5054947;28;20650;-61
2021/05/27 11:53:52;;;;;;;16.27;4.57;;;12.40;99.90;;;;;;5050928;28;20306;-59
2021/05/27 11:56:36;;;;;;;7.93;4.13;;;12.40;99.90;;;;;;5053401;28;20255;-62
2021/05/27 11:59:12;;;;;;;10.07;4.13;;;12.40;99.90;;;;;;5054666;28;20306;-60
2021/05/27 12:01:41;;;;;;;13.63;3.73;;;12.40;99.90;;;;;;5057486;28;20226;-61
2021/05/27 12:04:09;;;;;;;14.73;4.20;;;12.30;99.90;;;;;;5052967;28;20675;-60
2021/05/27 12:06:43;;;;;;;14.37;3.70;;;12.50;99.90;;;;;;5054957;28;20382;-60
2021/05/27 12:09:12;;;;;;;7.87;3.67;;;12.50;99.90;;;;;;5053852;28;20288;-60
2021/05/27 12:11:40;;;;;;;9.17;3.93;;;12.30;99.90;;;;;;5054015;28;20596;-60
2021/05/27 12:14:07;;;;;;;10.97;3.90;;;12.20;99.90;;;;;;5051364;28;20204;-52
2021/05/27 12:16:36;;;;;;;8.13;4.10;;;12.10;99.90;;;;;;5053111;28;20229;-52
2021/05/27 12:19:05;;;;;;;9.87;3.63;;;12.30;99.90;;;;;;5051724;28;20237;-52
2021/05/27 12:21:33;;;;;;;6.93;3.87;;;12.30;99.90;;;;;;5052082;28;20621;-51
2021/05/27 12:24:00;;;;;;;16.37;4.33;;;12.20;99.90;;;;;;5059101;28;20218;-52
2021/05/27 12:26:27;;;;;;;8.67;4.10;;;12.20;99.90;;;;;;5055438;28;20222;-52
2021/05/27 12:28:54;;;;;;;10.40;3.53;;;12.30;99.90;;;;;;5053174;28;20292;-52
2021/05/27 12:31:21;;;;;;;10.47;3.70;;;12.40;99.90;;;;;;5053747;28;20705;-51
2021/05/27 12:33:50;;;;;;;5.87;3.10;;;12.40;99.90;;;;;;5054608;28;20238;-52
2021/05/27 12:36:17;;;;;;;8.63;3.57;;;12.40;99.90;;;;;;5051046;28;20314;-52
2021/05/27 12:38:48;;;;;;;5.40;3.03;;;12.50;99.90;;;;;;5054162;28;20263;-51
2021/05/27 12:41:17;;;;;;;10.20;3.93;;;12.50;99.90;;;;;;5054799;28;20210;-52
2021/05/27 12:43:52;;;;;;;9.17;2.90;;;12.60;99.90;;;;;;5054018;28;20240;-51
2021/05/27 12:46:33;;;;;;;10.33;4.00;;;12.70;99.90;;;;;;5052963;28;20288;-51
2021/05/27 12:49:01;;;;;;;11.40;3.13;;;12.90;99.90;;;;;;5052180;28;20202;-51
2021/05/27 12:51:38;;;;;;;8.90;3.17;;;12.90;99.90;;;;;;5055121;28;20285;-52
2021/05/27 12:54:06;;;;;;;6.90;2.93;;;12.80;99.90;;;;;;5054023;28;20206;-51
2021/05/27 12:56:33;;;;;;;8.40;3.60;;;12.60;99.90;;;;;;5056945;28;20611;-52
2021/05/27 12:59:03;;;;;;;6.27;2.70;;;12.60;99.90;;;;;;5056927;28;20231;-50
2021/05/27 13:01:37;;;;;;;7.67;3.13;;;12.50;99.90;;;;;;5052359;28;20215;-52
2021/05/27 13:04:09;;;;;;;8.50;3.20;;;12.50;99.90;;;;;;5054350;28;20210;-52
2021/05/27 13:07:09;;;;;;;6.27;3.00;;;12.60;99.90;;;;;;5054945;28;20265;-51
2021/05/27 13:09:50;;;;;;;7.73;3.60;;;12.50;99.90;;;;;;5054707;28;20252;-51